Time;durP1;ratioP1;P1;durP2;ratioP2;P2;SDS_P1;SDS_P2;PMS_P1;PMS_P2;Temp;Humidity;BMP_temperature;BMP_pressure;BME280_temperature;BME280_humidity;BME280_pressure;Samples;Min_cycle;Max_cycle;Signal;HPM_P1;HPM_P2
2023/09/30 00:02:15;;;;;;;4.55;2.35;;;23.70;52.00;;;;;;5037895;28;20462;-64
2023/09/30 00:04:41;;;;;;;4.32;2.20;;;23.70;52.10;;;;;;5039775;28;20041;-60
2023/09/30 00:07:07;;;;;;;4.45;2.30;;;23.70;52.00;;;;;;5038461;28;20211;-64
2023/09/30 00:09:33;;;;;;;4.38;2.38;;;23.60;52.00;;;;;;5042457;28;20041;-61
2023/09/30 00:11:59;;;;;;;4.90;2.47;;;23.60;52.00;;;;;;5038592;28;20029;-64
2023/09/30 00:14:25;;;;;;;5.38;2.80;;;23.60;52.00;;;;;;5022815;28;20048;-62
2023/09/30 00:16:51;;;;;;;4.35;2.22;;;23.60;52.00;;;;;;5038452;28;20022;-62
2023/09/30 00:19:17;;;;;;;5.38;2.63;;;23.60;52.00;;;;;;5037788;28;20025;-64
2023/09/30 00:21:43;;;;;;;5.10;2.60;;;23.60;52.00;;;;;;5040197;28;20557;-62
2023/09/30 00:24:09;;;;;;;4.78;2.35;;;23.60;52.00;;;;;;5037291;28;20043;-64
2023/09/30 00:26:35;;;;;;;4.30;2.63;;;23.60;52.00;;;;;;5039571;28;20029;-62
2023/09/30 00:29:04;;;;;;;3.95;2.08;;;23.60;51.90;;;;;;5005381;28;20033;-61
2023/09/30 00:31:31;;;;;;;4.47;2.05;;;23.60;52.00;;;;;;5036973;28;20071;-61
2023/09/30 00:33:57;;;;;;;3.47;2.13;;;23.60;51.90;;;;;;5023150;28;20045;-63
2023/09/30 00:36:23;;;;;;;4.05;2.13;;;23.60;52.00;;;;;;5037415;28;20025;-61
2023/09/30 00:38:49;;;;;;;4.65;2.45;;;23.60;52.00;;;;;;5039711;28;20033;-64
2023/09/30 00:41:15;;;;;;;6.90;2.50;;;23.60;51.90;;;;;;5036935;28;20025;-61
2023/09/30 00:43:41;;;;;;;4.72;2.70;;;23.60;51.90;;;;;;5033508;28;20026;-64
2023/09/30 00:46:31;;;;;;;4.43;2.40;;;23.60;51.90;;;;;;5024008;28;20057;-62
2023/09/30 00:48:58;;;;;;;4.65;2.20;;;23.60;51.90;;;;;;5038688;28;20048;-62
2023/09/30 00:51:26;;;;;;;5.65;2.13;;;23.60;51.90;;;;;;5008117;28;20055;-62
2023/09/30 00:53:54;;;;;;;3.70;2.17;;;23.50;51.90;;;;;;5022376;28;20025;-62
2023/09/30 00:56:25;;;;;;;4.68;2.28;;;23.50;51.90;;;;;;5018860;28;20041;-63
2023/09/30 00:58:51;;;;;;;4.43;2.20;;;23.50;51.90;;;;;;5022605;28;20089;-63
2023/09/30 01:01:20;;;;;;;4.72;2.33;;;23.60;51.90;;;;;;5042113;28;20097;-62
2023/09/30 01:03:47;;;;;;;5.15;2.33;;;23.50;51.90;;;;;;5020376;28;20035;-64
2023/09/30 01:06:13;;;;;;;3.97;2.00;;;23.50;51.90;;;;;;5033470;28;20429;-63
2023/09/30 01:08:39;;;;;;;5.38;2.38;;;23.60;51.90;;;;;;5038716;28;20094;-63
2023/09/30 01:11:06;;;;;;;5.50;2.70;;;23.50;51.90;;;;;;5018618;28;20195;-64
2023/09/30 01:13:35;;;;;;;4.38;2.05;;;23.50;51.90;;;;;;5036051;28;20022;-64
2023/09/30 01:16:12;;;;;;;4.75;2.35;;;23.50;51.90;;;;;;5021327;28;20471;-62
2023/09/30 01:18:42;;;;;;;5.70;2.33;;;23.50;51.80;;;;;;5041647;28;20044;-63
2023/09/30 01:21:09;;;;;;;4.45;2.13;;;23.50;51.90;;;;;;5043886;28;20029;-61
2023/09/30 01:23:35;;;;;;;4.78;2.15;;;23.50;51.80;;;;;;5024222;28;20189;-61
2023/09/30 01:26:03;;;;;;;4.13;2.10;;;23.50;51.80;;;;;;5044214;28;20025;-63
2023/09/30 01:28:30;;;;;;;5.80;2.42;;;23.50;51.80;;;;;;5024246;28;20033;-65
2023/09/30 01:30:56;;;;;;;4.40;2.10;;;23.50;51.80;;;;;;5039719;28;20045;-62
2023/09/30 01:33:23;;;;;;;5.03;2.30;;;23.50;51.80;;;;;;5021535;28;20064;-64
2023/09/30 01:35:49;;;;;;;4.38;2.20;;;23.50;51.80;;;;;;5021622;28;20309;-63
2023/09/30 01:38:15;;;;;;;4.65;2.58;;;23.50;51.80;;;;;;5017843;28;20026;-60
2023/09/30 01:40:42;;;;;;;4.70;2.50;;;23.50;51.80;;;;;;5024444;28;20025;-60
2023/09/30 01:43:08;;;;;;;4.93;2.17;;;23.50;51.80;;;;;;5018528;28;20052;-63
2023/09/30 01:45:35;;;;;;;3.72;1.98;;;23.40;51.70;;;;;;5015840;28;20109;-60
2023/09/30 01:48:02;;;;;;;4.18;2.05;;;23.50;51.80;;;;;;5022171;28;20053;-61
2023/09/30 01:50:28;;;;;;;5.03;2.45;;;23.50;51.80;;;;;;5018051;28;20156;-61
2023/09/30 01:52:54;;;;;;;3.65;1.92;;;23.40;51.70;;;;;;5020668;28;20105;-65
2023/09/30 01:55:19;;;;;;;4.45;2.22;;;23.50;51.70;;;;;;5020620;28;20319;-60
2023/09/30 01:57:45;;;;;;;5.00;2.30;;;23.40;51.70;;;;;;5018765;28;20037;-61
2023/09/30 02:00:12;;;;;;;5.35;2.15;;;23.40;51.70;;;;;;5015229;28;20065;-60
2023/09/30 02:02:42;;;;;;;4.43;2.20;;;23.40;51.70;;;;;;5021014;28;20029;-62
2023/09/30 02:05:08;;;;;;;6.35;2.53;;;23.40;51.70;;;;;;5020646;28;20321;-63
2023/09/30 02:07:35;;;;;;;3.60;2.10;;;23.40;51.70;;;;;;5020644;28;20072;-62
2023/09/30 02:10:01;;;;;;;4.30;2.20;;;23.40;51.60;;;;;;5022904;28;20223;-64
2023/09/30 02:12:30;;;;;;;4.38;2.38;;;23.40;51.60;;;;;;5020508;28;20093;-65
2023/09/30 02:14:58;;;;;;;4.78;2.20;;;23.40;51.60;;;;;;5026378;28;20138;-63
2023/09/30 02:17:24;;;;;;;3.53;2.15;;;23.40;51.60;;;;;;5019918;28;20417;-63
2023/09/30 02:19:50;;;;;;;3.63;2.22;;;23.40;51.60;;;;;;5014441;28;20033;-63
2023/09/30 02:22:16;;;;;;;3.58;2.15;;;23.40;51.60;;;;;;5020927;28;20095;-65
2023/09/30 02:24:42;;;;;;;3.70;2.08;;;23.40;51.70;;;;;;5015017;28;20026;-63
2023/09/30 02:27:08;;;;;;;4.00;1.92;;;23.40;51.70;;;;;;5023236;28;20029;-63
2023/09/30 02:29:34;;;;;;;4.20;1.98;;;23.40;51.60;;;;;;5023024;28;20229;-61
2023/09/30 02:32:00;;;;;;;4.30;2.15;;;23.40;51.70;;;;;;5023943;28;20021;-63
2023/09/30 02:34:26;;;;;;;3.50;2.00;;;23.40;51.70;;;;;;5015514;28;20073;-63
2023/09/30 02:36:55;;;;;;;4.43;2.35;;;23.40;51.60;;;;;;5019332;28;20133;-64
2023/09/30 02:39:21;;;;;;;3.40;1.85;;;23.40;51.70;;;;;;5020661;28;20038;-61
2023/09/30 02:41:49;;;;;;;3.90;2.05;;;23.40;51.70;;;;;;5015875;28;20068;-63
2023/09/30 02:44:15;;;;;;;3.95;2.03;;;23.40;51.70;;;;;;5024430;28;20037;-61
2023/09/30 02:46:41;;;;;;;4.97;2.17;;;23.40;51.70;;;;;;5020675;28;20032;-61
2023/09/30 02:49:07;;;;;;;4.63;2.33;;;23.30;51.60;;;;;;5018896;28;20112;-63
2023/09/30 02:51:33;;;;;;;5.05;2.05;;;23.30;51.60;;;;;;5016027;28;20026;-62
2023/09/30 02:53:59;;;;;;;3.88;2.00;;;23.30;51.60;;;;;;5023869;28;20116;-61
2023/09/30 02:56:28;;;;;;;4.03;1.90;;;23.30;51.60;;;;;;5020470;28;20033;-61
2023/09/30 02:58:54;;;;;;;3.78;2.17;;;23.30;51.60;;;;;;5019842;28;20049;-64
2023/09/30 03:01:20;;;;;;;4.15;2.30;;;23.30;51.70;;;;;;5024258;28;20021;-64
2023/09/30 03:03:46;;;;;;;4.55;2.53;;;23.30;51.60;;;;;;5017851;28;20076;-63
2023/09/30 03:06:12;;;;;;;4.32;2.20;;;23.30;51.60;;;;;;5016112;28;20117;-64
2023/09/30 03:08:40;;;;;;;3.20;1.85;;;23.30;51.60;;;;;;5021825;28;20109;-63
2023/09/30 03:11:07;;;;;;;4.38;2.15;;;23.30;51.60;;;;;;5024351;28;20570;-65
2023/09/30 03:13:33;;;;;;;5.00;2.30;;;23.30;51.60;;;;;;5021986;28;20029;-62
2023/09/30 03:16:01;;;;;;;3.97;2.28;;;23.30;51.60;;;;;;5018032;28;20022;-63
2023/09/30 03:18:28;;;;;;;3.40;2.00;;;23.30;51.60;;;;;;5021873;28;20030;-64
2023/09/30 03:21:08;;;;;;;2.88;1.85;;;23.30;51.60;;;;;;5024699;28;20428;-61
2023/09/30 03:23:35;;;;;;;3.22;1.85;;;23.30;51.70;;;;;;5024591;28;20039;-61
2023/09/30 03:26:01;;;;;;;3.70;2.20;;;23.30;51.70;;;;;;5023032;28;20082;-62
2023/09/30 03:28:28;;;;;;;4.93;2.05;;;23.30;51.70;;;;;;5026031;28;20433;-62
2023/09/30 03:30:54;;;;;;;5.22;2.35;;;23.30;51.60;;;;;;5023686;28;20029;-63
2023/09/30 03:33:22;;;;;;;4.38;2.08;;;23.30;51.70;;;;;;5011541;28;20058;-62
2023/09/30 03:35:49;;;;;;;4.82;2.50;;;23.30;51.70;;;;;;5004985;28;20090;-63
2023/09/30 03:38:16;;;;;;;4.18;2.20;;;23.30;51.70;;;;;;5005245;28;20402;-61
2023/09/30 03:40:47;;;;;;;4.70;2.53;;;23.20;51.60;;;;;;5003278;28;20095;-62
2023/09/30 03:43:14;;;;;;;4.13;2.33;;;23.30;51.70;;;;;;5002746;28;20033;-61
2023/09/30 03:45:41;;;;;;;3.75;1.80;;;23.30;51.70;;;;;;4997926;28;20026;-60
2023/09/30 03:48:07;;;;;;;4.80;2.20;;;23.30;51.70;;;;;;4998276;28;20056;-61
2023/09/30 03:50:33;;;;;;;4.50;2.35;;;23.20;51.70;;;;;;5002172;28;20030;-61
2023/09/30 03:53:10;;;;;;;3.20;2.10;;;23.20;51.60;;;;;;5004428;28;20052;-64
2023/09/30 03:55:37;;;;;;;3.75;2.10;;;23.20;51.60;;;;;;5001599;28;20057;-63
2023/09/30 03:58:03;;;;;;;5.47;2.50;;;23.20;51.60;;;;;;4996291;28;20050;-60
2023/09/30 04:00:29;;;;;;;4.13;2.35;;;23.20;51.60;;;;;;4977470;28;20031;-63
2023/09/30 04:02:58;;;;;;;4.35;2.20;;;23.20;51.60;;;;;;4998661;28;20163;-62
2023/09/30 04:05:29;;;;;;;3.25;1.90;;;23.20;51.60;;;;;;5001227;28;20046;-62
2023/09/30 04:07:56;;;;;;;4.15;2.28;;;23.20;51.60;;;;;;4995189;28;20046;-62
2023/09/30 04:10:25;;;;;;;3.75;2.20;;;23.20;51.60;;;;;;5002311;28;20064;-61
2023/09/30 04:12:52;;;;;;;4.07;2.47;;;23.20;51.70;;;;;;5000517;28;20432;-61
2023/09/30 04:15:18;;;;;;;3.80;2.15;;;23.20;51.60;;;;;;5000271;28;20046;-62
2023/09/30 04:17:44;;;;;;;3.38;1.98;;;23.20;51.60;;;;;;4997851;28;20108;-65
2023/09/30 04:20:15;;;;;;;3.40;1.98;;;23.20;51.70;;;;;;4998845;28;20108;-60
2023/09/30 04:22:48;;;;;;;4.43;2.05;;;23.20;51.70;;;;;;4999856;28;20774;-64
2023/09/30 04:25:16;;;;;;;4.68;2.28;;;23.20;51.70;;;;;;4997650;28;20041;-62
2023/09/30 04:27:45;;;;;;;3.40;2.22;;;23.20;51.70;;;;;;4999121;28;20040;-64
2023/09/30 04:30:15;;;;;;;4.63;2.30;;;23.20;51.70;;;;;;4996545;28;20438;-60
2023/09/30 04:32:41;;;;;;;5.07;2.72;;;23.20;51.70;;;;;;4994649;28;20505;-62
2023/09/30 04:35:08;;;;;;;4.18;2.30;;;23.20;51.70;;;;;;4998317;28;20134;-62
2023/09/30 04:37:36;;;;;;;4.75;2.35;;;23.20;51.70;;;;;;5003913;28;20021;-64
2023/09/30 04:40:23;;;;;;;3.85;2.05;;;23.20;51.70;;;;;;5002149;28;20424;-62
2023/09/30 04:42:49;;;;;;;3.63;1.75;;;23.20;51.70;;;;;;5002707;28;20030;-62
2023/09/30 04:45:24;;;;;;;3.20;1.85;;;23.20;51.70;;;;;;4999803;28;20128;-61
2023/09/30 04:47:50;;;;;;;3.55;2.08;;;23.20;51.70;;;;;;5006788;28;20355;-61
2023/09/30 04:50:16;;;;;;;3.65;2.17;;;23.20;51.70;;;;;;5004028;28;20038;-62
2023/09/30 04:52:42;;;;;;;3.20;2.15;;;23.20;51.70;;;;;;5001551;28;20174;-63
2023/09/30 04:55:11;;;;;;;3.38;1.92;;;23.20;51.70;;;;;;5004999;28;20101;-61
2023/09/30 04:57:38;;;;;;;4.15;2.25;;;23.10;51.60;;;;;;5007551;28;20038;-60
2023/09/30 05:00:10;;;;;;;4.55;2.38;;;23.10;51.60;;;;;;5003141;28;20022;-63
2023/09/30 05:02:36;;;;;;;3.38;2.22;;;23.10;51.60;;;;;;5002486;28;20034;-61
2023/09/30 05:05:05;;;;;;;3.78;2.13;;;23.10;51.70;;;;;;5005898;28;20123;-61
2023/09/30 05:07:32;;;;;;;4.60;2.10;;;23.10;51.70;;;;;;5001377;28;20132;-62
2023/09/30 05:09:59;;;;;;;3.53;2.00;;;23.10;51.70;;;;;;5006377;28;20030;-63
2023/09/30 05:12:25;;;;;;;3.88;2.10;;;23.10;51.70;;;;;;5000547;28;20144;-63
2023/09/30 05:14:52;;;;;;;3.47;1.85;;;23.10;51.70;;;;;;5004823;28;20046;-62
2023/09/30 05:17:18;;;;;;;3.70;2.08;;;23.10;51.70;;;;;;5001500;28;20258;-62
2023/09/30 05:19:44;;;;;;;3.80;2.03;;;23.10;51.70;;;;;;5003571;28;20026;-62
2023/09/30 05:22:10;;;;;;;4.07;2.17;;;23.10;51.70;;;;;;4999151;28;20592;-60
2023/09/30 05:24:36;;;;;;;4.22;2.17;;;23.10;51.70;;;;;;5000163;28;20460;-61
2023/09/30 05:27:02;;;;;;;4.10;2.08;;;23.10;51.70;;;;;;5002805;28;20029;-64
2023/09/30 05:29:29;;;;;;;7.05;1.95;;;23.10;51.70;;;;;;5003286;28;20215;-61
2023/09/30 05:31:56;;;;;;;3.75;2.00;;;23.10;51.70;;;;;;5002912;28;20034;-61
2023/09/30 05:34:22;;;;;;;3.85;2.20;;;23.10;51.70;;;;;;5033345;28;20056;-65
2023/09/30 05:36:47;;;;;;;3.40;2.15;;;23.10;51.70;;;;;;5043060;28;20021;-65
2023/09/30 05:39:19;;;;;;;3.75;2.20;;;23.10;51.70;;;;;;5044794;28;20032;-64
2023/09/30 05:41:46;;;;;;;3.33;2.05;;;23.10;51.70;;;;;;5046548;28;20490;-64
2023/09/30 05:44:14;;;;;;;3.35;2.08;;;23.10;51.70;;;;;;5020791;28;20029;-63
2023/09/30 05:46:40;;;;;;;3.58;1.88;;;23.10;51.70;;;;;;5044610;28;20183;-63
2023/09/30 05:49:11;;;;;;;3.95;2.28;;;23.10;51.70;;;;;;5041525;28;20132;-63
2023/09/30 05:51:37;;;;;;;3.67;2.10;;;23.10;51.70;;;;;;5040811;28;20039;-64
2023/09/30 05:54:04;;;;;;;3.22;2.15;;;23.10;51.80;;;;;;5039636;28;20029;-63
2023/09/30 05:56:31;;;;;;;4.45;2.45;;;23.10;51.70;;;;;;5018925;28;20114;-62
2023/09/30 05:58:57;;;;;;;4.00;1.80;;;23.10;51.80;;;;;;5042400;28;20031;-60
2023/09/30 06:01:23;;;;;;;4.57;2.03;;;23.10;51.70;;;;;;5009596;28;20103;-63
2023/09/30 06:03:49;;;;;;;3.95;2.20;;;23.10;51.80;;;;;;5039536;28;20235;-64
2023/09/30 06:06:15;;;;;;;4.22;2.00;;;23.10;51.80;;;;;;5044969;28;20108;-63
2023/09/30 06:08:45;;;;;;;3.53;2.20;;;23.10;51.80;;;;;;5041814;28;20072;-59
2023/09/30 06:11:19;;;;;;;2.92;2.03;;;23.10;51.80;;;;;;5041449;28;20095;-64
2023/09/30 06:13:46;;;;;;;4.03;2.00;;;23.10;51.70;;;;;;5042842;28;20034;-62
2023/09/30 06:16:13;;;;;;;3.55;2.00;;;23.10;51.80;;;;;;5042521;28;20113;-61
2023/09/30 06:18:39;;;;;;;3.65;2.40;;;23.10;51.80;;;;;;5021673;28;20066;-61
2023/09/30 06:21:05;;;;;;;4.57;2.47;;;23.10;51.80;;;;;;5045335;28;20458;-64
2023/09/30 06:23:31;;;;;;;2.90;2.00;;;23.10;51.80;;;;;;5039523;28;20021;-63
2023/09/30 06:26:02;;;;;;;3.33;2.28;;;23.10;51.80;;;;;;5035905;28;20124;-64
2023/09/30 06:28:31;;;;;;;3.70;2.13;;;23.10;51.80;;;;;;5045988;28;20198;-60
2023/09/30 06:30:57;;;;;;;3.97;2.55;;;23.10;51.80;;;;;;5026555;28;20392;-64
2023/09/30 06:33:25;;;;;;;3.53;2.08;;;23.10;51.80;;;;;;5045790;28;20083;-62
2023/09/30 06:35:51;;;;;;;4.03;2.30;;;23.10;51.90;;;;;;5040875;28;20049;-64
2023/09/30 06:38:21;;;;;;;4.45;2.63;;;23.10;51.80;;;;;;5042362;28;20040;-61
2023/09/30 06:40:47;;;;;;;4.05;2.30;;;23.10;51.80;;;;;;5045540;28;20308;-59
2023/09/30 06:43:16;;;;;;;4.47;2.47;;;23.10;51.90;;;;;;5038919;28;20017;-64
2023/09/30 06:45:46;;;;;;;3.47;1.83;;;23.10;51.80;;;;;;5041280;28;20025;-65
2023/09/30 06:48:12;;;;;;;2.92;1.75;;;23.10;51.90;;;;;;5042848;28;20037;-62
2023/09/30 06:50:48;;;;;;;5.78;2.17;;;23.10;51.90;;;;;;5043968;28;20029;-65
2023/09/30 06:53:15;;;;;;;3.15;1.80;;;23.10;51.90;;;;;;5038373;28;20045;-61
2023/09/30 06:55:43;;;;;;;3.20;1.75;;;23.10;51.90;;;;;;5039924;28;20025;-62
2023/09/30 06:58:10;;;;;;;3.63;2.13;;;23.10;51.90;;;;;;5040798;28;20076;-63
2023/09/30 07:00:37;;;;;;;2.47;1.80;;;23.10;51.90;;;;;;5044343;28;20029;-65
2023/09/30 07:03:03;;;;;;;3.40;2.03;;;23.10;51.80;;;;;;5018221;28;20306;-61
2023/09/30 07:05:29;;;;;;;3.13;1.80;;;23.10;51.80;;;;;;5036276;28;20029;-62
2023/09/30 07:07:56;;;;;;;3.95;2.10;;;23.10;51.80;;;;;;5039454;28;20120;-61
2023/09/30 07:10:22;;;;;;;4.00;2.30;;;23.10;51.80;;;;;;5039603;28;20207;-62
2023/09/30 07:12:48;;;;;;;3.40;1.95;;;23.10;51.80;;;;;;5043065;28;20111;-64
2023/09/30 07:15:14;;;;;;;3.67;2.10;;;23.10;51.80;;;;;;5021009;28;20021;-63
2023/09/30 07:17:40;;;;;;;3.28;2.28;;;23.10;51.80;;;;;;5037966;28;20499;-61
2023/09/30 07:20:07;;;;;;;4.90;2.00;;;23.10;51.80;;;;;;5040061;28;20056;-61
2023/09/30 07:22:33;;;;;;;4.55;2.13;;;23.10;51.80;;;;;;5042069;28;20108;-61
2023/09/30 07:25:00;;;;;;;3.45;2.13;;;23.10;51.80;;;;;;5046498;28;20065;-64
2023/09/30 07:27:25;;;;;;;4.35;2.20;;;23.10;51.80;;;;;;5036343;28;20024;-61
2023/09/30 07:29:51;;;;;;;3.85;2.40;;;23.10;51.70;;;;;;5039950;28;20370;-61
2023/09/30 07:32:17;;;;;;;3.78;2.00;;;23.10;51.70;;;;;;5020864;28;20041;-64
2023/09/30 07:34:44;;;;;;;4.70;2.22;;;23.10;51.70;;;;;;5041351;28;20454;-61
2023/09/30 07:37:10;;;;;;;4.10;2.00;;;23.10;51.70;;;;;;5040147;28;20060;-64
2023/09/30 07:39:36;;;;;;;2.83;2.10;;;23.10;51.60;;;;;;5044154;28;20091;-65
2023/09/30 07:42:03;;;;;;;5.20;2.63;;;23.10;51.70;;;;;;5045038;28;20500;-60
2023/09/30 07:44:29;;;;;;;3.85;2.25;;;23.10;51.70;;;;;;5048538;28;20027;-62
2023/09/30 07:46:55;;;;;;;4.07;2.30;;;23.10;51.80;;;;;;5046811;28;20286;-62
2023/09/30 07:49:21;;;;;;;5.40;2.60;;;23.10;51.70;;;;;;5046496;28;20109;-64
2023/09/30 07:51:47;;;;;;;3.58;2.38;;;23.10;51.70;;;;;;5046395;28;20025;-64
2023/09/30 07:54:13;;;;;;;4.43;2.55;;;23.10;51.70;;;;;;5028186;28;20033;-62
2023/09/30 07:56:39;;;;;;;3.72;2.22;;;23.10;51.70;;;;;;5047857;28;20080;-61
2023/09/30 07:59:05;;;;;;;5.82;2.42;;;23.10;51.80;;;;;;5045411;28;20044;-63
2023/09/30 08:01:31;;;;;;;5.25;2.40;;;23.10;51.80;;;;;;5038520;28;20287;-61
2023/09/30 08:03:57;;;;;;;4.53;2.38;;;23.10;51.80;;;;;;5040180;28;20423;-63
2023/09/30 08:06:23;;;;;;;5.35;2.15;;;23.10;51.90;;;;;;5035924;28;20413;-63
2023/09/30 08:08:49;;;;;;;3.88;2.50;;;23.10;52.10;;;;;;5039089;28;20183;-63
2023/09/30 08:11:17;;;;;;;5.22;2.63;;;23.10;52.20;;;;;;5041984;28;20496;-62
2023/09/30 08:13:43;;;;;;;5.72;2.50;;;23.20;52.20;;;;;;5038599;28;20140;-63
2023/09/30 08:16:09;;;;;;;5.72;2.42;;;23.10;52.10;;;;;;5039905;28;20029;-62
2023/09/30 08:18:35;;;;;;;8.82;2.55;;;23.10;52.10;;;;;;5039064;28;20033;-63
2023/09/30 08:21:01;;;;;;;4.55;2.40;;;23.20;52.10;;;;;;5041202;28;20021;-61
2023/09/30 08:23:27;;;;;;;4.80;2.63;;;23.20;52.10;;;;;;5042424;28;20430;-62
2023/09/30 08:25:54;;;;;;;4.00;2.15;;;23.20;52.10;;;;;;5039303;28;20036;-62
2023/09/30 08:28:20;;;;;;;5.63;2.85;;;23.20;52.10;;;;;;5036834;28;20024;-62
2023/09/30 08:30:46;;;;;;;4.97;2.22;;;23.20;52.10;;;;;;5039041;28;20428;-64
2023/09/30 08:33:12;;;;;;;5.65;2.60;;;23.20;52.10;;;;;;5041913;28;20081;-63
2023/09/30 08:35:38;;;;;;;4.03;1.95;;;23.20;52.10;;;;;;5041014;28;20052;-63
2023/09/30 08:38:04;;;;;;;5.25;2.35;;;23.20;52.10;;;;;;5039987;28;20040;-64
2023/09/30 08:40:30;;;;;;;5.05;2.58;;;23.20;52.10;;;;;;5040170;28;20332;-62
2023/09/30 08:42:57;;;;;;;3.90;2.28;;;23.20;52.20;;;;;;5042708;28;20107;-64
2023/09/30 08:45:24;;;;;;;4.95;2.33;;;23.20;52.20;;;;;;5037139;28;20029;-62
2023/09/30 08:47:50;;;;;;;6.45;2.97;;;23.20;52.20;;;;;;5043957;28;20067;-63
2023/09/30 08:50:17;;;;;;;4.10;2.38;;;23.20;52.20;;;;;;5039044;28;20119;-62
2023/09/30 08:52:44;;;;;;;5.68;2.85;;;23.20;52.20;;;;;;5038043;28;20025;-63
2023/09/30 08:55:12;;;;;;;3.85;2.33;;;23.20;52.20;;;;;;5037931;28;20044;-61
2023/09/30 08:57:41;;;;;;;5.10;2.33;;;23.20;52.30;;;;;;5038408;28;20041;-61
2023/09/30 09:00:12;;;;;;;5.65;2.30;;;23.20;52.30;;;;;;5043367;28;20032;-62
2023/09/30 09:02:39;;;;;;;3.90;2.13;;;23.20;52.30;;;;;;5038140;28;20397;-62
2023/09/30 09:05:06;;;;;;;4.85;2.13;;;23.30;52.30;;;;;;5018918;28;20089;-61
2023/09/30 09:07:33;;;;;;;3.60;2.15;;;23.20;52.30;;;;;;5022952;28;20052;-63
2023/09/30 09:10:05;;;;;;;4.60;2.22;;;23.30;52.30;;;;;;5040167;28;20389;-62
2023/09/30 09:12:34;;;;;;;4.88;1.88;;;23.20;52.30;;;;;;5021213;28;20047;-62
2023/09/30 09:15:00;;;;;;;5.82;2.30;;;23.30;52.40;;;;;;5023417;28;20037;-62
2023/09/30 09:17:44;;;;;;;5.43;2.25;;;23.30;52.40;;;;;;5012431;28;20040;-63
2023/09/30 09:20:11;;;;;;;5.43;2.35;;;23.30;52.40;;;;;;5041118;28;20025;-59
2023/09/30 09:22:42;;;;;;;3.75;1.92;;;23.30;52.40;;;;;;5037698;28;20041;-62
2023/09/30 09:25:09;;;;;;;4.43;2.03;;;23.30;52.40;;;;;;5035461;28;20136;-64
2023/09/30 09:27:38;;;;;;;4.47;1.98;;;23.30;52.40;;;;;;5042144;28;20028;-63
2023/09/30 09:30:28;;;;;;;6.10;2.38;;;23.30;52.40;;;;;;5039793;28;20106;-64
2023/09/30 09:32:55;;;;;;;4.70;2.40;;;23.30;52.50;;;;;;5027054;28;20463;-62
2023/09/30 09:35:22;;;;;;;4.15;2.30;;;23.30;52.50;;;;;;5041149;28;20025;-60
2023/09/30 09:38:01;;;;;;;3.85;2.05;;;23.30;52.50;;;;;;5040918;28;20028;-64
2023/09/30 09:40:32;;;;;;;4.80;2.22;;;23.30;52.50;;;;;;5041159;28;20387;-63
2023/09/30 09:42:59;;;;;;;4.03;2.65;;;23.30;52.50;;;;;;5044132;28;20095;-63
2023/09/30 09:45:27;;;;;;;4.53;2.35;;;23.30;52.50;;;;;;5041798;28;20018;-62
2023/09/30 09:47:54;;;;;;;3.88;2.08;;;23.30;52.50;;;;;;5041480;28;20036;-63
2023/09/30 09:50:22;;;;;;;4.70;2.60;;;23.30;52.50;;;;;;5042415;28;20047;-60
2023/09/30 09:52:54;;;;;;;4.68;2.20;;;23.40;52.60;;;;;;5038173;28;20028;-59
2023/09/30 09:55:22;;;;;;;4.22;2.00;;;23.40;52.60;;;;;;5045095;28;20031;-61
2023/09/30 09:57:48;;;;;;;5.45;2.70;;;23.40;52.60;;;;;;5042748;28;20021;-63
2023/09/30 10:00:25;;;;;;;5.63;2.60;;;23.40;52.60;;;;;;5040033;28;20095;-64
2023/09/30 10:02:52;;;;;;;5.03;2.58;;;23.40;52.60;;;;;;5040617;28;20052;-62
2023/09/30 10:05:20;;;;;;;4.35;2.47;;;23.40;52.60;;;;;;5043503;28;20036;-60
2023/09/30 10:07:55;;;;;;;5.55;2.15;;;23.40;52.70;;;;;;5037206;28;20117;-64
2023/09/30 10:10:23;;;;;;;5.15;2.15;;;23.40;52.70;;;;;;5044154;28;20045;-65
2023/09/30 10:12:49;;;;;;;4.70;2.50;;;23.40;52.70;;;;;;5041518;28;20108;-64
2023/09/30 10:15:24;;;;;;;5.03;2.42;;;23.40;52.70;;;;;;5038873;28;20052;-65
2023/09/30 10:18:12;;;;;;;4.35;2.33;;;23.40;52.70;;;;;;5039770;28;20033;-61
2023/09/30 10:20:44;;;;;;;3.78;2.05;;;23.40;52.70;;;;;;5020540;28;20033;-64
2023/09/30 10:23:38;;;;;;;4.90;2.25;;;23.50;52.80;;;;;;5040439;28;20445;-61
2023/09/30 10:26:13;;;;;;;4.37;1.93;;;23.50;52.80;;;;;;5016490;28;20367;-63
2023/09/30 10:28:49;;;;;;;3.70;2.05;;;23.50;52.80;;;;;;5042110;28;20072;-61
2023/09/30 10:31:25;;;;;;;3.80;2.25;;;23.50;52.70;;;;;;5039565;28;20033;-60
2023/09/30 10:34:03;;;;;;;4.55;2.10;;;23.50;52.70;;;;;;5033955;28;20151;-63
2023/09/30 10:36:38;;;;;;;7.18;2.40;;;23.50;52.80;;;;;;5037920;28;20037;-61
2023/09/30 10:39:04;;;;;;;;;;;23.50;52.80;;;;;;5022478;28;20475;-63
2023/09/30 10:41:39;;;;;;;3.80;1.98;;;23.50;52.80;;;;;;5038678;28;19917;-63
2023/09/30 10:44:27;;;;;;;6.32;1.77;;;23.60;52.80;;;;;;5036234;28;20067;-61
2023/09/30 10:47:00;;;;;;;5.32;1.83;;;23.60;52.90;;;;;;5039896;28;21293;-60
2023/09/30 10:49:26;;;;;;;4.78;1.95;;;23.70;52.90;;;;;;5039274;28;20106;-63
2023/09/30 10:51:56;;;;;;;4.68;1.92;;;23.70;52.80;;;;;;5043504;28;20021;-62
2023/09/30 10:54:24;;;;;;;5.03;2.13;;;23.70;52.70;;;;;;5039306;28;20091;-56
2023/09/30 10:56:50;;;;;;;5.40;2.50;;;23.70;52.50;;;;;;5039409;28;20052;-66
2023/09/30 10:59:23;;;;;;;3.72;2.00;;;23.80;52.50;;;;;;5040653;28;20053;-62
2023/09/30 11:01:51;;;;;;;4.20;2.08;;;23.80;52.40;;;;;;5023482;28;20025;-62
2023/09/30 11:04:18;;;;;;;3.97;2.10;;;23.80;52.30;;;;;;5037974;28;20399;-62
2023/09/30 11:06:45;;;;;;;3.15;1.88;;;23.80;52.10;;;;;;5039586;28;20301;-63
2023/09/30 11:09:16;;;;;;;5.18;1.98;;;23.80;52.00;;;;;;5037453;28;20091;-64
2023/09/30 11:11:51;;;;;;;5.00;2.03;;;23.90;51.90;;;;;;5042453;28;20055;-63
2023/09/30 11:14:22;;;;;;;3.95;1.77;;;23.80;51.70;;;;;;5038523;28;20047;-63
2023/09/30 11:16:51;;;;;;;6.28;2.05;;;23.80;51.50;;;;;;5037309;28;20021;-61
2023/09/30 11:19:18;;;;;;;3.85;1.67;;;23.80;51.40;;;;;;5036939;28;20025;-64
2023/09/30 11:21:44;;;;;;;4.20;1.90;;;23.80;51.20;;;;;;5020138;28;20116;-61
2023/09/30 11:24:11;;;;;;;3.78;2.17;;;23.90;51.10;;;;;;5034501;28;20037;-63
2023/09/30 11:26:37;;;;;;;3.60;1.70;;;23.90;51.00;;;;;;5037896;28;20195;-63
2023/09/30 11:29:11;;;;;;;3.38;1.77;;;23.80;50.80;;;;;;5036390;28;20120;-62
2023/09/30 11:31:47;;;;;;;4.00;2.00;;;23.90;50.70;;;;;;5039888;28;20234;-63
2023/09/30 11:34:17;;;;;;;4.20;1.83;;;23.80;50.60;;;;;;5020569;28;20067;-60
2023/09/30 11:36:51;;;;;;;3.72;2.03;;;23.90;50.50;;;;;;5040443;28;20316;-63
2023/09/30 11:39:24;;;;;;;5.05;1.88;;;23.80;50.40;;;;;;5036822;28;20059;-63
2023/09/30 11:41:52;;;;;;;;;;;23.80;50.30;;;;;;5042285;28;20041;-62
2023/09/30 11:44:18;;;;;;;3.53;1.63;;;23.80;50.30;;;;;;5041548;28;19916;-63
2023/09/30 11:46:49;;;;;;;3.58;1.80;;;23.80;50.20;;;;;;5019969;28;20028;-60
2023/09/30 11:49:34;;;;;;;3.65;1.88;;;23.80;50.30;;;;;;5045781;28;20032;-56
2023/09/30 11:52:09;;;;;;;3.50;1.63;;;23.80;50.10;;;;;;5041729;28;20049;-62
2023/09/30 11:54:44;;;;;;;3.28;1.73;;;23.90;50.20;;;;;;5046645;28;20103;-56
2023/09/30 11:57:11;;;;;;;4.30;1.80;;;23.80;50.20;;;;;;5039776;28;20036;-61
2023/09/30 11:59:39;;;;;;;4.18;1.70;;;23.80;50.10;;;;;;5042718;28;20040;-60
2023/09/30 12:02:08;;;;;;;3.33;1.63;;;23.90;50.10;;;;;;5037676;28;20033;-63
2023/09/30 12:04:35;;;;;;;3.38;1.80;;;23.90;49.90;;;;;;5041432;28;20036;-60
2023/09/30 12:07:01;;;;;;;4.18;1.85;;;23.90;49.70;;;;;;5043559;28;20072;-61
2023/09/30 12:09:28;;;;;;;3.70;1.83;;;23.90;49.50;;;;;;5045147;28;20051;-62
2023/09/30 12:11:55;;;;;;;4.65;2.00;;;23.90;49.30;;;;;;5042805;28;20029;-61
2023/09/30 12:14:21;;;;;;;5.32;2.05;;;24.00;49.20;;;;;;5022952;28;20030;-62
2023/09/30 12:16:47;;;;;;;2.47;1.40;;;24.00;49.10;;;;;;5043399;28;20021;-60
2023/09/30 12:19:15;;;;;;;3.72;1.50;;;24.00;48.90;;;;;;5043992;28;20040;-62
2023/09/30 12:21:41;;;;;;;4.50;1.67;;;24.00;48.70;;;;;;5035330;28;20124;-62
2023/09/30 12:24:09;;;;;;;3.80;1.63;;;24.00;48.50;;;;;;5019829;28;20108;-61
2023/09/30 12:26:40;;;;;;;3.88;2.17;;;24.00;48.30;;;;;;5046476;28;20033;-63
2023/09/30 12:29:06;;;;;;;4.28;1.80;;;24.00;48.10;;;;;;5043237;28;20317;-60
2023/09/30 12:31:36;;;;;;;3.72;1.70;;;24.00;47.80;;;;;;5041388;28;20022;-62
2023/09/30 12:34:02;;;;;;;3.13;1.80;;;24.00;47.80;;;;;;5020424;28;20071;-62
2023/09/30 12:36:28;;;;;;;3.03;1.67;;;24.10;47.70;;;;;;5026800;28;20092;-65
2023/09/30 12:38:56;;;;;;;4.15;1.73;;;24.00;47.40;;;;;;5022889;28;20551;-59
2023/09/30 12:41:23;;;;;;;4.00;1.60;;;24.00;47.50;;;;;;5026495;28;20130;-58
2023/09/30 12:43:50;;;;;;;3.33;1.60;;;24.10;47.60;;;;;;5027121;28;20402;-57
2023/09/30 12:46:18;;;;;;;4.00;1.65;;;24.10;47.50;;;;;;5020499;28;20514;-58
2023/09/30 12:48:44;;;;;;;4.40;1.60;;;24.20;47.40;;;;;;5018313;28;20347;-59
2023/09/30 12:51:10;;;;;;;4.15;1.80;;;24.30;47.20;;;;;;5019429;28;20163;-61
2023/09/30 12:53:36;;;;;;;2.85;1.50;;;24.40;47.10;;;;;;5028583;28;20191;-55